Time;durP1;ratioP1;P1;durP2;ratioP2;P2;SDS_P1;SDS_P2;PMS_P1;PMS_P2;Temp;Humidity;BMP_temperature;BMP_pressure;BME280_temperature;BME280_humidity;BME280_pressure;Samples;Min_cycle;Max_cycle;Signal;HPM_P1;HPM_P2
2022/04/11 00:04:54;;;;;;;10.70;5.60;;;;;;;0.52;73.22;99905.40;213699;1276;139213;-63
2022/04/11 00:09:57;;;;;;;8.60;4.70;;;;;;;0.39;73.40;99906.77;213748;1276;142380;-62
2022/04/11 00:15:00;;;;;;;9.30;5.60;;;;;;;0.29;73.16;99909.02;214102;1276;141059;-62
2022/04/11 00:20:04;;;;;;;9.70;5.70;;;;;;;0.23;73.38;99913.02;214385;1276;140176;-63
2022/04/11 00:25:07;;;;;;;9.00;5.60;;;;;;;0.16;73.64;99915.85;213767;1276;158731;-63
2022/04/11 00:30:11;;;;;;;5.60;4.70;;;;;;;0.06;73.75;99918.00;213220;1276;140392;-62
2022/04/11 00:35:14;;;;;;;12.20;5.40;;;;;;;-0.01;73.92;99920.47;215180;1274;139836;-61
2022/04/11 00:40:17;;;;;;;10.50;5.80;;;;;;;-0.03;74.23;99925.48;215194;1275;140018;-65
2022/04/11 00:45:20;;;;;;;10.60;5.00;;;;;;;-0.06;73.94;99927.84;215157;1276;140395;-64
2022/04/11 00:50:22;;;;;;;10.30;6.20;;;;;;;-0.04;74.26;99932.56;215783;1276;140846;-64
2022/04/11 00:55:25;;;;;;;11.00;7.70;;;;;;;-0.06;74.09;99938.70;215916;1276;139665;-65
2022/04/11 01:00:28;;;;;;;17.10;6.00;;;;;;;-0.10;74.18;99941.94;215836;1276;141449;-66
2022/04/11 01:05:31;;;;;;;11.00;7.80;;;;;;;-0.16;74.32;99946.05;213630;1276;139378;-63
2022/04/11 01:10:34;;;;;;;11.30;7.80;;;;;;;-0.21;74.54;99950.23;215189;1276;139859;-63
2022/04/11 01:15:36;;;;;;;30.40;11.90;;;;;;;-0.18;74.79;99954.83;215641;1276;139687;-63
2022/04/11 01:20:39;;;;;;;28.70;9.50;;;;;;;-0.15;74.75;99955.75;215873;1276;140688;-63
2022/04/11 01:25:48;;;;;;;17.10;7.80;;;;;;;-0.10;75.11;99959.38;214824;1276;141481;-62
2022/04/11 01:30:54;;;;;;;11.50;7.70;;;;;;;0.03;75.35;99959.64;214277;1276;140320;-64
2022/04/11 01:35:58;;;;;;;8.60;7.00;;;;;;;0.12;75.64;99960.18;213231;1276;139644;-62
2022/04/11 01:41:01;;;;;;;10.30;8.10;;;;;;;0.21;75.88;99958.69;213624;1276;138714;-65
2022/04/11 01:46:06;;;;;;;11.80;9.20;;;;;;;0.26;76.03;99958.94;214088;1276;140890;-67
2022/04/11 01:51:08;;;;;;;13.40;7.90;;;;;;;0.31;75.75;99960.27;213147;1276;139627;-60
2022/04/11 01:56:10;;;;;;;12.70;7.90;;;;;;;0.33;76.08;99958.29;213728;1276;140765;-62
2022/04/11 02:01:17;;;;;;;10.60;7.10;;;;;;;0.36;76.02;99964.48;213538;1275;141058;-64
2022/04/11 02:06:20;;;;;;;10.00;7.40;;;;;;;0.42;76.36;99972.56;214079;1276;140297;-65
2022/04/11 02:11:26;;;;;;;13.60;7.50;;;;;;;0.51;76.83;99978.44;213416;1276;139576;-63
2022/04/11 02:16:29;;;;;;;14.00;10.00;;;;;;;0.62;76.56;99983.51;214369;1275;139453;-66
2022/04/11 02:21:31;;;;;;;13.80;9.40;;;;;;;0.70;76.67;99987.17;213679;1276;140230;-63
2022/04/11 02:26:33;;;;;;;12.70;8.40;;;;;;;0.80;76.81;99988.17;213720;1275;140545;-63
2022/04/11 02:31:36;;;;;;;16.30;9.10;;;;;;;0.88;77.00;99990.13;214219;1276;140416;-62
2022/04/11 02:36:39;;;;;;;14.90;8.20;;;;;;;0.93;77.01;99995.52;213383;1276;144757;-63
2022/04/11 02:41:41;;;;;;;12.70;8.00;;;;;;;0.97;76.96;99996.30;214423;1276;141771;-62
2022/04/11 02:46:44;;;;;;;12.90;7.00;;;;;;;0.99;76.83;99988.71;214329;1276;141520;-63
2022/04/11 02:51:46;;;;;;;14.20;7.50;;;;;;;1.02;77.04;99992.61;213809;1276;140028;-63
2022/04/11 02:56:49;;;;;;;8.30;6.50;;;;;;;1.06;77.02;99996.75;215809;1276;140215;-65
2022/04/11 03:01:52;;;;;;;9.00;6.10;;;;;;;1.10;76.95;99994.88;216199;1276;141811;-65
2022/04/11 03:06:55;;;;;;;13.80;8.50;;;;;;;1.19;76.87;100003.06;215825;1276;141396;-65
2022/04/11 03:11:59;;;;;;;12.90;6.80;;;;;;;1.27;76.87;100001.98;214432;1276;140851;-64
2022/04/11 03:17:01;;;;;;;9.40;4.80;;;;;;;1.31;76.95;100004.14;213992;1276;140971;-63
2022/04/11 03:22:04;;;;;;;10.70;7.10;;;;;;;1.34;76.60;100009.98;213655;1276;139502;-64
2022/04/11 03:27:07;;;;;;;8.70;6.40;;;;;;;1.35;76.85;100012.23;214251;1276;142827;-63
2022/04/11 03:32:09;;;;;;;7.50;4.70;;;;;;;1.32;76.79;100014.14;214027;1275;142050;-63
2022/04/11 03:37:12;;;;;;;7.40;5.50;;;;;;;1.29;77.05;100010.80;214455;1276;139713;-63
2022/04/11 03:42:15;;;;;;;5.70;4.80;;;;;;;1.28;76.92;100012.11;214661;1276;139379;-62
2022/04/11 03:47:18;;;;;;;10.40;6.60;;;;;;;1.27;76.89;100014.15;213417;1276;140684;-63
2022/04/11 03:52:21;;;;;;;6.90;4.60;;;;;;;1.30;76.53;100023.67;214010;1276;141198;-62
2022/04/11 03:57:24;;;;;;;9.90;4.80;;;;;;;1.33;76.82;100032.10;212881;1278;141629;-62
2022/04/11 04:02:26;;;;;;;13.00;6.40;;;;;;;1.28;76.59;100037.33;213167;1276;140313;-63
2022/04/11 04:07:30;;;;;;;11.80;6.80;;;;;;;1.25;77.03;100034.54;213834;1276;139363;-63
2022/04/11 04:12:33;;;;;;;10.30;5.30;;;;;;;1.22;77.04;100034.20;213108;1276;140800;-63
2022/04/11 04:17:36;;;;;;;8.10;4.80;;;;;;;1.24;76.92;100042.20;213338;1276;139817;-63
2022/04/11 04:22:41;;;;;;;8.70;4.30;;;;;;;1.25;76.81;100039.66;214110;1277;140513;-63
2022/04/11 04:27:45;;;;;;;10.90;5.20;;;;;;;1.22;76.63;100045.73;214302;1276;140804;-63
2022/04/11 04:32:48;;;;;;;12.50;6.00;;;;;;;1.20;76.69;100051.38;214545;1274;140609;-63
2022/04/11 04:37:52;;;;;;;10.20;5.50;;;;;;;1.26;76.87;100055.09;213113;1278;140412;-63
2022/04/11 04:42:55;;;;;;;10.40;5.20;;;;;;;1.34;76.28;100061.39;214138;1276;140811;-63
2022/04/11 04:47:58;;;;;;;9.60;5.30;;;;;;;1.45;76.64;100064.73;213386;1276;141128;-63
2022/04/11 04:53:01;;;;;;;11.70;5.10;;;;;;;1.59;76.26;100059.91;213457;1276;143151;-63
2022/04/11 04:58:04;;;;;;;8.00;4.50;;;;;;;1.73;76.36;100060.77;215365;1276;140289;-64
2022/04/11 05:03:08;;;;;;;3.10;2.80;;;;;;;1.94;76.21;100069.80;215781;1276;140934;-66
2022/04/11 05:08:10;;;;;;;7.60;4.40;;;;;;;2.12;76.00;100072.37;215684;1275;141107;-65
2022/04/11 05:13:13;;;;;;;10.00;5.20;;;;;;;2.35;75.74;100080.07;215739;1276;141390;-65
2022/04/11 05:18:15;;;;;;;10.20;4.80;;;;;;;2.68;75.94;100083.50;216226;1274;141681;-64
2022/04/11 05:23:19;;;;;;;5.90;4.30;;;;;;;3.07;75.19;100074.44;215181;1276;140543;-65
2022/04/11 05:28:23;;;;;;;8.50;5.40;;;;;;;3.27;75.20;100079.80;215058;1277;141155;-64
2022/04/11 05:33:26;;;;;;;9.40;6.40;;;;;;;3.30;74.70;100082.16;215325;1276;142625;-64
2022/04/11 05:38:31;;;;;;;14.70;6.30;;;;;;;3.41;74.91;100082.60;213666;1276;141722;-64
2022/04/11 05:43:34;;;;;;;11.80;5.70;;;;;;;3.66;75.00;100080.33;213684;1277;143198;-63
2022/04/11 05:48:40;;;;;;;11.60;6.50;;;;;;;3.81;74.32;100083.58;214266;1277;141557;-63
2022/04/11 05:53:44;;;;;;;9.00;6.40;;;;;;;3.91;74.34;100090.78;213340;1276;141284;-63
2022/04/11 05:58:47;;;;;;;6.50;5.50;;;;;;;4.13;73.87;100093.98;213425;1277;140695;-63
2022/04/11 06:03:50;;;;;;;5.90;4.30;;;;;;;4.30;73.92;100097.23;214796;1276;141548;-64
2022/04/11 06:08:52;;;;;;;9.10;4.80;;;;;;;4.48;73.60;100096.26;213505;1277;140322;-64
2022/04/11 06:13:55;;;;;;;5.50;4.70;;;;;;;4.64;72.74;100098.33;213147;1277;145447;-64
2022/04/11 06:18:59;;;;;;;10.90;7.40;;;;;;;4.74;72.46;100096.53;213789;1277;140670;-64
2022/04/11 06:24:02;;;;;;;10.40;6.10;;;;;;;4.89;72.96;100098.02;213472;1277;141874;-64
2022/04/11 06:29:05;;;;;;;10.50;6.20;;;;;;;5.27;72.74;100103.75;213119;1277;142355;-63
2022/04/11 06:34:08;;;;;;;10.10;6.50;;;;;;;5.34;72.74;100116.91;214090;1275;143504;-63
2022/04/11 06:39:12;;;;;;;8.60;7.20;;;;;;;5.22;72.14;100121.96;213349;1276;141709;-63
2022/04/11 06:44:15;;;;;;;9.30;8.00;;;;;;;5.22;72.09;100119.84;213431;1276;140273;-63
2022/04/11 06:49:18;;;;;;;6.20;4.80;;;;;;;5.32;72.14;100121.44;213749;1277;140776;-65
2022/04/11 06:54:21;;;;;;;8.20;6.60;;;;;;;5.81;71.91;100118.58;213915;1277;139829;-64
2022/04/11 06:59:25;;;;;;;7.60;6.00;;;;;;;6.11;71.73;100125.28;213569;1277;139174;-64
2022/04/11 07:04:28;;;;;;;7.60;6.40;;;;;;;6.38;71.46;100131.20;214957;1277;140521;-66
2022/04/11 07:09:31;;;;;;;7.00;6.10;;;;;;;6.37;70.63;100131.98;214208;1276;209914;-66
2022/04/11 07:14:34;;;;;;;8.10;7.20;;;;;;;6.36;70.49;100128.83;215120;1276;139494;-65
2022/04/11 07:19:43;;;;;;;7.40;6.60;;;;;;;6.50;70.36;100133.88;215114;1276;139859;-65
2022/04/11 07:24:46;;;;;;;10.00;5.60;;;;;;;6.74;69.60;100131.66;215112;1276;140101;-65
2022/04/11 07:29:49;;;;;;;10.80;7.30;;;;;;;6.77;69.33;100140.97;214592;1275;142201;-65
2022/04/11 07:34:53;;;;;;;8.50;6.10;;;;;;;6.66;68.44;100146.83;213346;1276;140536;-64
2022/04/11 07:39:55;;;;;;;9.00;7.00;;;;;;;6.61;68.87;100151.73;214678;1277;140036;-64
2022/04/11 07:45:02;;;;;;;5.40;4.80;;;;;;;6.68;68.77;100152.53;214452;1274;140625;-65
2022/04/11 07:50:08;;;;;;;7.40;6.60;;;;;;;6.81;68.09;100156.67;213514;1275;140801;-65
2022/04/11 07:55:13;;;;;;;7.80;6.50;;;;;;;6.99;67.79;100160.23;214979;1276;236058;-66
2022/04/11 08:00:16;;;;;;;6.60;5.90;;;;;;;7.25;67.27;100158.52;215205;1276;139541;-65
2022/04/11 08:05:20;;;;;;;7.10;6.30;;;;;;;7.53;67.34;100163.95;214670;1276;140204;-67
2022/04/11 08:10:24;;;;;;;7.10;4.90;;;;;;;7.86;67.07;100165.11;213521;1276;140384;-66
2022/04/11 08:15:30;;;;;;;5.40;4.80;;;;;;;8.03;66.63;100160.62;214734;1276;140041;-65
2022/04/11 08:20:33;;;;;;;6.50;5.30;;;;;;;8.11;65.83;100164.85;213330;1276;139263;-64
2022/04/11 08:25:36;;;;;;;8.90;7.20;;;;;;;7.88;65.66;100164.00;213971;1276;139082;-65
2022/04/11 08:30:38;;;;;;;7.70;7.10;;;;;;;7.32;65.32;100173.56;213530;1276;139817;-65
2022/04/11 08:35:42;;;;;;;9.60;8.20;;;;;;;6.95;66.04;100172.66;213413;1276;139817;-65
2022/04/11 08:40:46;;;;;;;7.50;6.70;;;;;;;6.88;66.64;100170.60;213429;1276;141381;-67
2022/04/11 08:45:52;;;;;;;6.30;5.60;;;;;;;6.99;66.19;100167.81;214404;1276;140565;-66
2022/04/11 08:50:55;;;;;;;5.30;4.90;;;;;;;7.32;66.23;100170.10;213501;1276;138938;-64
2022/04/11 08:55:58;;;;;;;7.00;6.10;;;;;;;7.61;66.29;100172.15;213394;1276;139720;-65
2022/04/11 09:01:02;;;;;;;7.10;3.90;;;;;;;7.91;66.07;100164.77;214161;1276;141467;-65
2022/04/11 09:06:09;;;;;;;10.30;4.20;;;;;;;8.28;65.17;100163.76;213401;1276;139470;-65
2022/04/11 09:11:13;;;;;;;3.60;3.30;;;;;;;8.63;64.43;100161.27;213225;1276;140261;-66
2022/04/11 09:16:16;;;;;;;6.80;4.60;;;;;;;8.90;64.13;100159.98;215247;1276;139183;-66
2022/04/11 09:21:23;;;;;;;6.50;5.30;;;;;;;9.34;63.73;100162.48;215969;1276;140955;-66
2022/04/11 09:26:27;;;;;;;6.00;5.40;;;;;;;9.27;62.76;100167.48;214924;1276;139373;-67
2022/04/11 09:31:30;;;;;;;4.90;3.20;;;;;;;9.05;62.66;100168.90;215992;1274;140244;-66
2022/04/11 09:36:53;;;;;;;6.20;5.50;;;;;;;8.90;61.97;100166.48;215739;1276;140760;-66
2022/04/11 09:42:04;;;;;;;4.10;3.80;;;;;;;8.79;62.11;100168.60;215161;1276;141360;-66
2022/04/11 09:47:08;;;;;;;5.60;4.10;;;;;;;8.59;61.65;100170.93;215126;1276;139607;-66
2022/04/11 09:52:15;;;;;;;4.00;3.40;;;;;;;8.50;62.09;100165.21;214603;1276;138942;-65
2022/04/11 09:57:19;;;;;;;5.20;4.70;;;;;;;8.54;62.06;100158.34;214497;1276;139982;-66
2022/04/11 10:02:23;;;;;;;4.30;3.90;;;;;;;8.68;62.03;100156.86;214259;1276;141444;-65
2022/04/11 10:07:28;;;;;;;3.80;3.30;;;;;;;8.71;61.93;100151.34;214019;1276;139990;-66
2022/04/11 10:12:32;;;;;;;4.40;4.00;;;;;;;8.87;62.16;100153.70;214594;1276;140550;-66
2022/04/11 10:17:35;;;;;;;8.20;4.70;;;;;;;9.13;61.74;100157.92;214166;1275;141767;-66
2022/04/11 10:22:53;;;;;;;4.70;4.30;;;;;;;9.36;61.56;100162.75;213530;1276;141438;-65
2022/04/11 10:28:18;;;;;;;5.30;4.90;;;;;;;9.49;60.88;100155.11;213941;1276;140984;-66
2022/04/11 10:33:49;;;;;;;6.00;5.40;;;;;;;9.36;60.57;100156.24;213278;1276;140297;-66
2022/04/11 10:39:17;;;;;;;7.10;6.10;;;;;;;9.16;60.73;100164.25;213233;1276;140932;-65
2022/04/11 10:44:35;;;;;;;6.90;5.00;;;;;;;9.14;60.81;100159.98;213727;1276;140607;-66
2022/04/11 10:49:48;;;;;;;5.80;5.20;;;;;;;8.88;60.60;100162.78;213711;1276;1302705;-66
2022/04/11 10:54:55;;;;;;;6.10;3.60;;;;;;;8.67;61.09;100163.09;213905;1276;140222;-67
2022/04/11 11:00:08;;;;;;;3.70;3.40;;;;;;;8.89;61.41;100158.23;214646;1276;139892;-66
2022/04/11 11:05:36;;;;;;;4.80;4.20;;;;;;;9.18;61.04;100154.65;214552;1275;139818;-65
2022/04/11 11:10:56;;;;;;;3.70;3.40;;;;;;;9.25;60.85;100149.85;214587;1276;139629;-65
2022/04/11 11:16:10;;;;;;;16.40;6.40;;;;;;;9.99;61.22;100145.08;214718;1276;139600;-66
2022/04/11 11:21:36;;;;;;;8.80;4.60;;;;;;;10.48;60.24;100134.27;215857;1276;141176;-67
2022/04/11 11:26:45;;;;;;;4.80;3.40;;;;;;;10.62;59.15;100133.96;214069;1276;140165;-65
2022/04/11 11:31:47;;;;;;;;;;;;;;;10.45;58.35;100131.00;215742;1276;139623;-67
2022/04/11 11:36:56;;;;;;;4.10;3.70;;;;;;;10.06;57.73;100132.71;216591;1276;126436;-66
2022/04/11 11:42:05;;;;;;;6.80;4.50;;;;;;;9.65;57.11;100141.17;215409;1276;140816;-66
2022/04/11 11:47:15;;;;;;;5.10;3.10;;;;;;;9.20;57.31;100139.25;215042;1276;139155;-66
2022/04/11 11:52:20;;;;;;;5.40;3.20;;;;;;;8.93;57.91;100140.05;216041;1276;139894;-70
2022/04/11 11:57:28;;;;;;;3.40;2.90;;;;;;;8.64;58.34;100138.81;214027;1276;139933;-66
2022/04/11 12:08:02;;;;;;;2.90;2.40;;;;;;;8.93;58.69;100128.80;214759;1276;140043;-65
2022/04/11 12:13:05;;;;;;;6.30;2.90;;;;;;;9.05;58.36;100131.30;213806;1276;139098;-65
2022/04/11 12:18:09;;;;;;;2.10;2.00;;;;;;;9.12;58.49;100123.57;214698;1276;140507;-66
2022/04/11 12:23:14;;;;;;;3.90;2.90;;;;;;;9.25;58.17;100127.43;215194;1276;140683;-67
2022/04/11 12:28:25;;;;;;;2.30;2.20;;;;;;;9.20;57.48;100129.93;214307;1276;140282;-65
2022/04/11 12:33:42;;;;;;;2.30;2.10;;;;;;;9.24;58.17;100131.91;213484;1277;141221;-67
2022/04/11 12:38:49;;;;;;;4.90;2.50;;;;;;;9.82;58.56;100120.50;213596;1276;140720;-66
2022/04/11 12:44:04;;;;;;;4.90;3.10;;;;;;;10.30;58.02;100114.41;213223;1276;142722;-66
2022/04/11 12:49:11;;;;;;;;;;;;;;;10.58;57.05;100107.13;213376;1276;141726;-66
2022/04/11 12:54:16;;;;;;;3.90;2.90;;;;;;;11.03;56.74;100096.31;214021;1276;126603;-67
2022/04/11 12:59:33;;;;;;;2.10;2.00;;;;;;;11.42;56.32;100093.91;213349;1276;140194;-67
2022/04/11 13:04:40;;;;;;;2.00;1.90;;;;;;;11.74;55.10;100086.95;214351;1276;139690;-66
2022/04/11 13:09:43;;;;;;;2.00;1.90;;;;;;;12.00;53.80;100083.31;213619;1276;140461;-67
2022/04/11 13:14:48;;;;;;;1.60;1.50;;;;;;;12.04;53.40;100084.20;213250;1276;140479;-65
2022/04/11 13:19:51;;;;;;;2.10;1.90;;;;;;;11.96;52.41;100081.52;213536;1276;140595;-66
2022/04/11 13:24:55;;;;;;;2.50;2.30;;;;;;;11.72;52.11;100084.56;214961;1276;140990;-66
2022/04/11 13:29:57;;;;;;;5.20;2.30;;;;;;;11.41;51.96;100087.32;213904;1276;140589;-64
2022/04/11 13:35:20;;;;;;;1.90;1.80;;;;;;;11.12;52.34;100082.88;214055;1276;140428;-66
2022/04/11 13:40:23;;;;;;;2.80;2.60;;;;;;;11.15;52.99;100093.46;214509;1276;140531;-66
2022/04/11 13:45:26;;;;;;;3.20;2.90;;;;;;;11.07;53.34;100092.63;215365;1276;141073;-67
2022/04/11 13:50:29;;;;;;;6.90;2.70;;;;;;;11.21;53.50;100095.01;216077;1276;140484;-68
2022/04/11 13:55:32;;;;;;;2.20;2.00;;;;;;;11.29;53.07;100094.18;214220;1276;140289;-65
2022/04/11 14:00:39;;;;;;;6.00;2.50;;;;;;;11.19;52.84;100089.41;214500;1276;140227;-67
2022/04/11 14:05:43;;;;;;;2.20;1.50;;;;;;;11.05;52.82;100091.61;214124;1276;141447;-68
2022/04/11 14:10:49;;;;;;;1.20;1.10;;;;;;;10.75;52.43;100091.48;213670;1276;141176;-69
2022/04/11 14:15:55;;;;;;;3.20;1.70;;;;;;;10.34;52.38;100086.83;214427;1276;141587;-69
2022/04/11 14:20:58;;;;;;;2.00;1.70;;;;;;;10.02;52.56;100082.23;213950;1276;141590;-69
2022/04/11 14:26:01;;;;;;;2.30;1.90;;;;;;;9.74;52.63;100087.89;213352;1276;142526;-67
2022/04/11 14:31:05;;;;;;;2.00;1.80;;;;;;;9.56;53.28;100092.86;214137;1276;140952;-66
2022/04/11 14:36:09;;;;;;;2.80;2.50;;;;;;;9.40;53.88;100090.15;213472;1276;140325;-66
2022/04/11 14:41:33;;;;;;;4.40;2.80;;;;;;;9.22;54.31;100092.88;213165;1276;160818;-69
2022/04/11 14:46:36;;;;;;;2.70;1.90;;;;;;;9.01;54.82;100092.79;213951;1276;141187;-69
2022/04/11 14:51:40;;;;;;;7.40;4.70;;;;;;;8.93;55.26;100094.61;214866;1276;139697;-70
2022/04/11 14:56:44;;;;;;;2.00;1.80;;;;;;;8.89;55.16;100091.80;213499;1276;139609;-67
2022/04/11 15:01:46;;;;;;;2.60;2.00;;;;;;;8.80;55.17;100090.25;214072;1276;140154;-66
2022/04/11 15:06:50;;;;;;;7.80;2.40;;;;;;;8.62;55.40;100088.95;214517;1276;140732;-65
2022/04/11 15:11:52;;;;;;;12.50;5.20;;;;;;;8.45;55.68;100090.11;214317;1276;139141;-62
2022/04/11 15:16:55;;;;;;;4.60;2.70;;;;;;;8.33;55.77;100086.63;214358;1275;140190;-66
2022/04/11 15:21:59;;;;;;;3.10;2.70;;;;;;;8.38;56.08;100082.86;212851;1276;140048;-66
2022/04/11 15:27:02;;;;;;;6.60;6.00;;;;;;;8.46;56.19;100077.96;214578;1276;140595;-64
2022/04/11 15:32:06;;;;;;;3.90;2.60;;;;;;;8.50;56.51;100076.24;213667;1276;140436;-64
2022/04/11 15:37:10;;;;;;;4.50;2.00;;;;;;;8.52;56.48;100063.77;214685;1276;140354;-64
2022/04/11 15:42:14;;;;;;;5.80;2.90;;;;;;;8.50;56.41;100062.27;213339;1276;139515;-66
2022/04/11 15:47:16;;;;;;;5.40;3.00;;;;;;;8.48;56.92;100061.40;215638;1276;139645;-68
2022/04/11 15:52:20;;;;;;;3.40;2.60;;;;;;;8.50;56.59;100058.87;215834;1276;139828;-68
2022/04/11 15:57:23;;;;;;;4.90;3.10;;;;;;;8.47;56.58;100056.88;215728;1276;139883;-66
2022/04/11 16:02:26;;;;;;;4.10;1.90;;;;;;;8.39;56.20;100054.99;214247;1276;140101;-65
2022/04/11 16:07:28;;;;;;;6.90;2.90;;;;;;;8.31;56.68;100059.30;214594;1276;139601;-64
2022/04/11 16:12:32;;;;;;;4.70;3.60;;;;;;;8.17;57.44;100068.11;215013;1276;139782;-65
2022/04/11 16:17:35;;;;;;;3.90;2.90;;;;;;;7.98;57.83;100086.63;214303;1276;139763;-67
2022/04/11 16:22:38;;;;;;;3.60;2.50;;;;;;;7.68;58.10;100093.65;213857;1276;139745;-69
2022/04/11 16:27:41;;;;;;;2.90;2.50;;;;;;;7.33;58.51;100107.52;213481;1276;140097;-65
2022/04/11 16:32:44;;;;;;;3.40;2.50;;;;;;;6.99;58.79;100111.50;213073;1276;140990;-66
2022/04/11 16:37:46;;;;;;;2.60;2.00;;;;;;;6.66;59.45;100123.45;214219;1276;139917;-65
2022/04/11 16:42:50;;;;;;;1.70;1.60;;;;;;;6.36;60.15;100114.72;212730;1276;139027;-65
2022/04/11 16:47:54;;;;;;;20.50;5.20;;;;;;;6.08;61.12;100110.20;213328;1276;139301;-64
2022/04/11 16:52:57;;;;;;;3.10;2.00;;;;;;;5.92;61.89;100109.29;213553;1276;139651;-65
2022/04/11 16:58:01;;;;;;;3.90;1.60;;;;;;;5.81;62.34;100111.04;212903;1276;141859;-65
2022/04/11 17:03:07;;;;;;;3.90;3.60;;;;;;;5.65;63.23;100099.80;213834;1276;140035;-65
2022/04/11 17:08:11;;;;;;;1.90;1.50;;;;;;;5.54;64.08;100096.42;215007;1276;139632;-65
2022/04/11 17:13:15;;;;;;;1.60;1.50;;;;;;;5.43;64.51;100089.16;212912;1276;140059;-66
2022/04/11 17:18:31;;;;;;;3.50;2.70;;;;;;;5.34;65.59;100086.73;214061;1276;140778;-67
2022/04/11 17:23:37;;;;;;;3.20;1.80;;;;;;;5.41;65.97;100090.48;213106;1276;140960;-67
2022/04/11 17:28:41;;;;;;;3.50;2.60;;;;;;;5.46;66.11;100094.80;214731;1276;141946;-67
2022/04/11 17:33:45;;;;;;;4.20;2.50;;;;;;;5.47;66.25;100100.38;214248;1276;141744;-66
2022/04/11 17:38:52;;;;;;;3.00;2.80;;;;;;;5.48;66.85;100108.65;214521;1276;140738;-66
2022/04/11 17:43:56;;;;;;;3.70;3.30;;;;;;;5.48;67.30;100120.07;214397;1276;141233;-66
2022/04/11 17:48:59;;;;;;;3.70;3.40;;;;;;;5.45;67.66;100121.27;215919;1276;142217;-66
2022/04/11 17:54:07;;;;;;;4.00;3.00;;;;;;;5.41;67.66;100125.10;215739;1276;140653;-67
2022/04/11 17:59:11;;;;;;;2.80;2.50;;;;;;;5.41;67.92;100126.73;213587;1276;141791;-67
2022/04/11 18:04:14;;;;;;;3.30;2.80;;;;;;;5.37;68.08;100136.81;213514;1276;141878;-63
2022/04/11 18:09:17;;;;;;;2.90;2.20;;;;;;;5.25;68.20;100140.13;214363;1276;140025;-62
2022/04/11 18:14:19;;;;;;;2.60;1.70;;;;;;;5.09;68.61;100145.48;213732;1276;139099;-63
2022/04/11 18:19:23;;;;;;;2.40;2.00;;;;;;;4.93;68.90;100150.36;213970;1276;141043;-62
2022/04/11 18:24:25;;;;;;;4.00;3.10;;;;;;;4.79;69.17;100153.87;214275;1275;140996;-63
2022/04/11 18:34:55;;;;;;;4.30;3.80;;;;;;;4.53;69.44;100167.95;214234;1276;141536;-64
2022/04/11 18:39:58;;;;;;;5.20;4.10;;;;;;;4.32;69.79;100168.55;213743;1276;139436;-64
2022/04/11 18:45:18;;;;;;;5.30;4.60;;;;;;;4.30;70.25;100183.05;213482;1276;139833;-64
2022/04/11 18:50:21;;;;;;;4.60;4.20;;;;;;;4.31;70.36;100187.12;213877;1276;139728;-64
2022/04/11 18:55:24;;;;;;;7.70;6.50;;;;;;;4.29;70.59;100192.17;213191;1276;140633;-64
2022/04/11 19:00:27;;;;;;;9.40;7.90;;;;;;;4.31;70.77;100194.48;213439;1276;140313;-65
2022/04/11 19:05:31;;;;;;;10.70;5.40;;;;;;;4.30;70.77;100196.90;213586;1276;139536;-67
2022/04/11 19:10:33;;;;;;;5.90;5.30;;;;;;;4.23;70.65;100196.54;213149;1276;140357;-62
2022/04/11 19:15:36;;;;;;;7.60;5.20;;;;;;;4.15;70.80;100197.52;213077;1276;139253;-62
2022/04/11 19:20:39;;;;;;;9.00;5.80;;;;;;;4.09;70.63;100197.21;214265;1276;140060;-63
2022/04/11 19:25:43;;;;;;;5.50;4.70;;;;;;;3.98;71.08;100194.66;214043;1276;140494;-63
2022/04/11 19:30:53;;;;;;;5.40;3.30;;;;;;;3.91;70.99;100198.23;213082;1276;140209;-62
2022/04/11 19:35:55;;;;;;;4.60;3.80;;;;;;;3.78;70.92;100199.84;214577;1276;139391;-63
2022/04/11 19:40:57;;;;;;;7.20;4.90;;;;;;;3.61;71.23;100202.50;214483;1276;139954;-62
2022/04/11 19:46:00;;;;;;;5.80;5.30;;;;;;;3.47;71.60;100197.80;215085;1276;140220;-63
2022/04/11 19:51:03;;;;;;;6.10;5.50;;;;;;;3.45;71.90;100199.06;213823;1276;140179;-62
2022/04/11 19:56:10;;;;;;;7.10;5.50;;;;;;;3.36;71.87;100198.52;214904;1276;140118;-64
2022/04/11 20:01:14;;;;;;;7.20;4.40;;;;;;;3.33;72.58;100205.27;213398;1276;138962;-64
2022/04/11 20:06:17;;;;;;;11.60;5.00;;;;;;;3.32;72.40;100203.40;215544;1276;139289;-63
2022/04/11 20:11:23;;;;;;;10.70;5.60;;;;;;;3.30;72.65;100203.45;214854;1276;141549;-64
2022/04/11 20:16:25;;;;;;;8.90;6.70;;;;;;;3.30;72.89;100198.54;215572;1276;140627;-64
2022/04/11 20:21:29;;;;;;;15.60;7.10;;;;;;;3.33;72.73;100198.42;213801;1276;139785;-63
2022/04/11 20:26:32;;;;;;;10.80;7.70;;;;;;;3.41;72.98;100195.73;214094;1276;140876;-64
2022/04/11 20:31:40;;;;;;;12.40;6.70;;;;;;;3.37;72.78;100195.41;214914;1276;140412;-63
2022/04/11 20:36:42;;;;;;;8.50;7.30;;;;;;;3.33;73.08;100195.34;213314;1276;139827;-62
2022/04/11 20:41:46;;;;;;;13.30;9.90;;;;;;;3.25;73.09;100194.52;214381;1276;139473;-63
2022/04/11 20:46:49;;;;;;;19.40;9.90;;;;;;;3.28;73.54;100194.98;213699;1276;140042;-62
2022/04/11 20:51:53;;;;;;;15.70;11.20;;;;;;;3.31;73.38;100197.46;213243;1276;140555;-63
2022/04/11 20:56:57;;;;;;;22.00;12.30;;;;;;;3.28;73.32;100193.52;214468;1276;140429;-63
2022/04/11 21:02:00;;;;;;;17.70;12.40;;;;;;;3.22;73.13;100196.48;213768;1275;140709;-64
2022/04/11 21:07:04;;;;;;;19.00;11.80;;;;;;;3.07;72.95;100191.52;213974;1276;140037;-63
2022/04/11 21:12:08;;;;;;;21.30;10.90;;;;;;;2.89;72.91;100193.80;213577;1274;140269;-63
2022/04/11 21:17:12;;;;;;;16.70;10.50;;;;;;;2.76;73.72;100198.91;213634;1276;139461;-64
2022/04/11 21:22:15;;;;;;;23.80;13.10;;;;;;;2.68;73.40;100197.72;214306;1276;140776;-63
2022/04/11 21:27:18;;;;;;;21.10;12.80;;;;;;;2.57;73.32;100199.21;213383;1278;142360;-62
2022/04/11 21:32:22;;;;;;;20.70;13.90;;;;;;;2.53;73.51;100200.27;213319;1278;141701;-63
2022/04/11 21:37:25;;;;;;;27.90;14.50;;;;;;;2.58;74.04;100206.05;213697;1277;142035;-64
2022/04/11 21:42:28;;;;;;;25.40;15.80;;;;;;;2.62;74.05;100209.89;213959;1276;139334;-64
2022/04/11 21:47:31;;;;;;;21.90;14.50;;;;;;;2.50;73.48;100209.73;213393;1276;141517;-63
2022/04/11 21:52:34;;;;;;;19.50;13.00;;;;;;;2.42;73.97;100212.83;214786;1276;140955;-62
2022/04/11 21:57:37;;;;;;;21.40;13.30;;;;;;;2.37;74.01;100213.67;213974;1276;140871;-63
2022/04/11 22:08:21;;;;;;;20.20;14.00;;;;;;;2.27;73.85;100213.17;214736;1276;142413;-64
2022/04/11 22:13:24;;;;;;;18.10;12.70;;;;;;;2.22;73.87;100212.77;216045;1276;143580;-64
2022/04/11 22:18:27;;;;;;;28.80;17.90;;;;;;;2.15;73.76;100212.95;216060;1276;144277;-64
2022/04/11 22:23:29;;;;;;;26.60;14.80;;;;;;;2.18;74.39;100217.23;215976;1275;140492;-64
2022/04/11 22:28:32;;;;;;;29.00;16.60;;;;;;;2.22;74.53;100218.64;214591;1277;140443;-64
2022/04/11 22:33:35;;;;;;;30.50;18.90;;;;;;;2.25;74.39;100217.36;214097;1276;141552;-64
2022/04/11 22:38:38;;;;;;;30.60;18.40;;;;;;;2.34;74.87;100220.63;214665;1276;141922;-64
2022/04/11 22:43:42;;;;;;;38.10;23.70;;;;;;;2.45;75.04;100222.77;213736;1277;142169;-62
2022/04/11 22:48:44;;;;;;;40.80;23.80;;;;;;;2.55;75.57;100224.09;212500;1277;1117787;-62
2022/04/11 22:53:47;;;;;;;39.80;22.20;;;;;;;2.58;75.47;100234.01;213330;1277;139563;-62
2022/04/11 22:58:50;;;;;;;38.80;21.40;;;;;;;2.51;75.31;100233.05;213464;1277;140995;-62
2022/04/11 23:03:53;;;;;;;42.00;23.50;;;;;;;2.46;75.28;100235.01;214307;1277;140507;-63
2022/04/11 23:08:56;;;;;;;32.50;23.70;;;;;;;2.34;75.08;100228.70;214030;1276;141238;-63
2022/04/11 23:13:58;;;;;;;29.90;19.30;;;;;;;2.24;75.06;100227.09;213409;1277;140364;-63
2022/04/11 23:19:02;;;;;;;33.40;22.90;;;;;;;2.14;75.03;100223.12;214098;1277;140153;-63
2022/04/11 23:24:05;;;;;;;35.00;22.20;;;;;;;2.08;75.34;100222.02;214128;1276;139998;-65
2022/04/11 23:29:08;;;;;;;35.70;20.20;;;;;;;2.03;75.46;100223.89;214091;1276;139733;-62
2022/04/11 23:34:10;;;;;;;37.00;23.00;;;;;;;2.01;75.20;100220.52;213804;1276;141377;-63